sensor_id;sensor_type;location;lat;lon;timestamp;pressure;altitude;pressure_sealevel;temperature;humidity
60479;BME280;46321;48.398;11.754;2023-03-31T00:00:13;96167.84;;;7.99;75.78
60479;BME280;46321;48.398;11.754;2023-03-31T00:02:39;96167.84;;;7.99;75.59
60479;BME280;46321;48.398;11.754;2023-03-31T00:05:08;96156.66;;;7.97;75.54
60479;BME280;46321;48.398;11.754;2023-03-31T00:07:34;96154.00;;;7.89;76.10
60479;BME280;46321;48.398;11.754;2023-03-31T00:10:03;96146.75;;;7.91;76.18
60479;BME280;46321;48.398;11.754;2023-03-31T00:12:28;96151.38;;;7.97;76.30
60479;BME280;46321;48.398;11.754;2023-03-31T00:14:54;96147.41;;;8.01;76.10
60479;BME280;46321;48.398;11.754;2023-03-31T00:17:19;96138.69;;;8.01;75.82
60479;BME280;46321;48.398;11.754;2023-03-31T00:19:44;96149.22;;;8.01;76.04
60479;BME280;46321;48.398;11.754;2023-03-31T00:22:09;96127.31;;;7.92;76.44
60479;BME280;46321;48.398;11.754;2023-03-31T00:24:35;96127.00;;;7.95;76.04
60479;BME280;46321;48.398;11.754;2023-03-31T00:27:01;96122.88;;;7.93;75.74
60479;BME280;46321;48.398;11.754;2023-03-31T00:29:27;96126.53;;;7.83;75.95
60479;BME280;46321;48.398;11.754;2023-03-31T00:31:53;96118.13;;;7.79;75.90
60479;BME280;46321;48.398;11.754;2023-03-31T00:34:19;96124.38;;;7.78;76.04
60479;BME280;46321;48.398;11.754;2023-03-31T00:36:44;96111.22;;;7.70;75.74
60479;BME280;46321;48.398;11.754;2023-03-31T00:39:14;96125.53;;;7.76;75.89
60479;BME280;46321;48.398;11.754;2023-03-31T00:41:40;96113.50;;;7.73;75.88
60479;BME280;46321;48.398;11.754;2023-03-31T00:46:49;96112.69;;;7.64;76.26
60479;BME280;46321;48.398;11.754;2023-03-31T00:49:41;96102.97;;;7.65;76.29
60479;BME280;46321;48.398;11.754;2023-03-31T00:52:14;96097.72;;;7.65;76.22
60479;BME280;46321;48.398;11.754;2023-03-31T00:54:44;96093.75;;;7.69;76.09
60479;BME280;46321;48.398;11.754;2023-03-31T00:57:10;96103.31;;;7.70;75.88
60479;BME280;46321;48.398;11.754;2023-03-31T00:59:38;96093.28;;;7.65;75.92
60479;BME280;46321;48.398;11.754;2023-03-31T01:02:05;96090.16;;;7.53;76.23
60479;BME280;46321;48.398;11.754;2023-03-31T01:04:51;96062.50;;;7.49;76.31
60479;BME280;46321;48.398;11.754;2023-03-31T01:09:59;96068.75;;;7.56;76.41
60479;BME280;46321;48.398;11.754;2023-03-31T01:12:26;96061.84;;;7.55;76.20
60479;BME280;46321;48.398;11.754;2023-03-31T01:14:52;96056.56;;;7.55;76.49
60479;BME280;46321;48.398;11.754;2023-03-31T01:17:18;96052.78;;;7.58;76.65
60479;BME280;46321;48.398;11.754;2023-03-31T01:19:58;96051.81;;;7.59;76.48
60479;BME280;46321;48.398;11.754;2023-03-31T01:26:04;96044.06;;;7.66;76.68
60479;BME280;46321;48.398;11.754;2023-03-31T01:40:01;96024.28;;;7.62;78.09
60479;BME280;46321;48.398;11.754;2023-03-31T01:42:54;96026.75;;;7.63;77.96
60479;BME280;46321;48.398;11.754;2023-03-31T01:48:53;95998.13;;;7.60;78.21
60479;BME280;46321;48.398;11.754;2023-03-31T01:51:48;95993.34;;;7.55;78.19
60479;BME280;46321;48.398;11.754;2023-03-31T01:55:15;96002.75;;;7.50;77.79
60479;BME280;46321;48.398;11.754;2023-03-31T01:57:26;95983.81;;;7.46;78.72
60479;BME280;46321;48.398;11.754;2023-03-31T02:02:35;95973.47;;;7.36;78.10
60479;BME280;46321;48.398;11.754;2023-03-31T02:05:06;95969.69;;;7.30;78.45
60479;BME280;46321;48.398;11.754;2023-03-31T02:07:39;95977.59;;;7.30;78.70
60479;BME280;46321;48.398;11.754;2023-03-31T02:10:08;95968.41;;;7.35;78.15
60479;BME280;46321;48.398;11.754;2023-03-31T02:12:35;95973.47;;;7.36;78.48
60479;BME280;46321;48.398;11.754;2023-03-31T02:15:04;95960.31;;;7.36;78.24
60479;BME280;46321;48.398;11.754;2023-03-31T02:17:31;95959.16;;;7.39;78.16
60479;BME280;46321;48.398;11.754;2023-03-31T02:20:05;95959.81;;;7.41;78.01
60479;BME280;46321;48.398;11.754;2023-03-31T02:22:34;95956.19;;;7.42;78.31
60479;BME280;46321;48.398;11.754;2023-03-31T02:25:03;95950.25;;;7.40;78.34
60479;BME280;46321;48.398;11.754;2023-03-31T02:27:36;95944.34;;;7.38;78.56
60479;BME280;46321;48.398;11.754;2023-03-31T02:30:04;95949.59;;;7.38;78.43
60479;BME280;46321;48.398;11.754;2023-03-31T02:32:41;95950.44;;;7.38;78.59
60479;BME280;46321;48.398;11.754;2023-03-31T02:35:18;95945.00;;;7.40;78.40
60479;BME280;46321;48.398;11.754;2023-03-31T02:37:45;95939.72;;;7.40;78.23
60479;BME280;46321;48.398;11.754;2023-03-31T02:40:17;95928.22;;;7.41;78.13
60479;BME280;46321;48.398;11.754;2023-03-31T02:42:43;95930.19;;;7.39;78.18
60479;BME280;46321;48.398;11.754;2023-03-31T02:47:58;95932.47;;;7.42;78.11
60479;BME280;46321;48.398;11.754;2023-03-31T02:50:28;95927.22;;;7.42;78.58
60479;BME280;46321;48.398;11.754;2023-03-31T02:53:13;95934.13;;;7.43;78.71
60479;BME280;46321;48.398;11.754;2023-03-31T03:01:30;95925.59;;;7.41;78.84
60479;BME280;46321;48.398;11.754;2023-03-31T03:15:03;95919.13;;;7.52;78.76
60479;BME280;46321;48.398;11.754;2023-03-31T03:17:39;95919.97;;;7.52;78.91
60479;BME280;46321;48.398;11.754;2023-03-31T03:20:07;95922.22;;;7.55;78.92
60479;BME280;46321;48.398;11.754;2023-03-31T03:22:34;95917.16;;;7.54;79.41
60479;BME280;46321;48.398;11.754;2023-03-31T03:24:59;95923.72;;;7.58;79.60
60479;BME280;46321;48.398;11.754;2023-03-31T03:27:25;95928.81;;;7.60;79.10
60479;BME280;46321;48.398;11.754;2023-03-31T03:29:50;95922.56;;;7.61;79.49
60479;BME280;46321;48.398;11.754;2023-03-31T03:32:15;95930.47;;;7.61;80.08
60479;BME280;46321;48.398;11.754;2023-03-31T03:34:41;95931.94;;;7.63;79.94
60479;BME280;46321;48.398;11.754;2023-03-31T03:37:06;95923.19;;;7.63;79.84
60479;BME280;46321;48.398;11.754;2023-03-31T03:39:31;95932.53;;;7.74;79.92
60479;BME280;46321;48.398;11.754;2023-03-31T03:41:57;95941.09;;;7.76;79.76
60479;BME280;46321;48.398;11.754;2023-03-31T03:44:22;95949.00;;;7.76;79.86
60479;BME280;46321;48.398;11.754;2023-03-31T03:46:48;95945.25;;;7.70;80.22
60479;BME280;46321;48.398;11.754;2023-03-31T03:49:14;95945.06;;;7.72;80.40
60479;BME280;46321;48.398;11.754;2023-03-31T03:51:39;95940.59;;;7.81;80.12
60479;BME280;46321;48.398;11.754;2023-03-31T03:54:04;95945.22;;;7.78;80.33
60479;BME280;46321;48.398;11.754;2023-03-31T03:56:29;95931.16;;;7.86;80.39
60479;BME280;46321;48.398;11.754;2023-03-31T03:58:55;95940.22;;;7.92;80.33
60479;BME280;46321;48.398;11.754;2023-03-31T04:01:21;95929.34;;;7.95;80.68
60479;BME280;46321;48.398;11.754;2023-03-31T04:03:47;95913.84;;;7.92;81.26
60479;BME280;46321;48.398;11.754;2023-03-31T04:06:12;95905.91;;;8.00;81.33
60479;BME280;46321;48.398;11.754;2023-03-31T04:08:38;95892.03;;;8.07;81.49
60479;BME280;46321;48.398;11.754;2023-03-31T04:11:15;95891.34;;;8.13;81.43
60479;BME280;46321;48.398;11.754;2023-03-31T04:13:42;95886.53;;;8.17;81.51
60479;BME280;46321;48.398;11.754;2023-03-31T04:16:08;95893.09;;;8.21;81.91
60479;BME280;46321;48.398;11.754;2023-03-31T04:18:33;95883.00;;;8.24;81.71
60479;BME280;46321;48.398;11.754;2023-03-31T04:21:01;95883.38;;;8.21;82.28
60479;BME280;46321;48.398;11.754;2023-03-31T04:23:33;95879.38;;;8.25;82.61
60479;BME280;46321;48.398;11.754;2023-03-31T04:25:59;95880.03;;;8.28;82.59
60479;BME280;46321;48.398;11.754;2023-03-31T04:28:24;95883.78;;;8.33;82.80
60479;BME280;46321;48.398;11.754;2023-03-31T04:30:52;95873.06;;;8.35;82.98
60479;BME280;46321;48.398;11.754;2023-03-31T04:33:19;95878.81;;;8.39;82.98
60479;BME280;46321;48.398;11.754;2023-03-31T04:35:45;95864.44;;;8.41;83.05
60479;BME280;46321;48.398;11.754;2023-03-31T04:38:15;95856.72;;;8.40;83.44
60479;BME280;46321;48.398;11.754;2023-03-31T04:40:43;95847.25;;;8.45;83.60
60479;BME280;46321;48.398;11.754;2023-03-31T04:43:08;95854.19;;;8.46;84.03
60479;BME280;46321;48.398;11.754;2023-03-31T04:45:33;95842.28;;;8.51;84.03
60479;BME280;46321;48.398;11.754;2023-03-31T04:47:59;95826.47;;;8.51;84.08
60479;BME280;46321;48.398;11.754;2023-03-31T04:50:24;95826.81;;;8.47;84.91
60479;BME280;46321;48.398;11.754;2023-03-31T04:52:50;95823.81;;;8.51;84.74
60479;BME280;46321;48.398;11.754;2023-03-31T04:55:15;95819.53;;;8.50;84.88
60479;BME280;46321;48.398;11.754;2023-03-31T04:57:40;95829.88;;;8.36;86.06
60479;BME280;46321;48.398;11.754;2023-03-31T05:00:06;95829.94;;;8.28;86.23
60479;BME280;46321;48.398;11.754;2023-03-31T05:02:32;95799.44;;;8.48;85.64
60479;BME280;46321;48.398;11.754;2023-03-31T05:04:58;95778.59;;;8.54;85.63
60479;BME280;46321;48.398;11.754;2023-03-31T05:07:23;95787.34;;;8.54;85.89
60479;BME280;46321;48.398;11.754;2023-03-31T05:09:48;95775.06;;;8.46;86.38
60479;BME280;46321;48.398;11.754;2023-03-31T05:12:13;95760.50;;;8.51;86.27
60479;BME280;46321;48.398;11.754;2023-03-31T05:14:39;95748.69;;;8.46;86.08
60479;BME280;46321;48.398;11.754;2023-03-31T05:17:04;95741.38;;;8.33;86.89
60479;BME280;46321;48.398;11.754;2023-03-31T05:19:30;95727.13;;;8.43;86.55
60479;BME280;46321;48.398;11.754;2023-03-31T05:21:55;95721.59;;;8.53;85.96
60479;BME280;46321;48.398;11.754;2023-03-31T05:24:21;95715.28;;;8.54;85.28
60479;BME280;46321;48.398;11.754;2023-03-31T05:26:46;95711.03;;;8.53;85.85
60479;BME280;46321;48.398;11.754;2023-03-31T05:29:19;95708.03;;;8.56;85.87
60479;BME280;46321;48.398;11.754;2023-03-31T05:31:44;95711.28;;;8.43;86.70
60479;BME280;46321;48.398;11.754;2023-03-31T05:34:10;95700.38;;;8.31;87.72
60479;BME280;46321;48.398;11.754;2023-03-31T05:36:35;95698.00;;;8.36;87.84
60479;BME280;46321;48.398;11.754;2023-03-31T05:39:02;95681.09;;;8.45;87.38
60479;BME280;46321;48.398;11.754;2023-03-31T05:41:27;95682.75;;;8.46;87.25
60479;BME280;46321;48.398;11.754;2023-03-31T05:43:52;95675.06;;;8.60;86.44
60479;BME280;46321;48.398;11.754;2023-03-31T05:46:18;95667.13;;;8.60;86.23
60479;BME280;46321;48.398;11.754;2023-03-31T05:48:43;95647.03;;;8.59;86.54
60479;BME280;46321;48.398;11.754;2023-03-31T05:51:09;95630.72;;;8.70;86.09
60479;BME280;46321;48.398;11.754;2023-03-31T05:53:34;95624.19;;;8.66;85.86
60479;BME280;46321;48.398;11.754;2023-03-31T05:56:01;95629.47;;;8.66;86.06
60479;BME280;46321;48.398;11.754;2023-03-31T05:58:27;95615.19;;;8.76;85.87
60479;BME280;46321;48.398;11.754;2023-03-31T06:01:03;95609.34;;;8.65;86.14
60479;BME280;46321;48.398;11.754;2023-03-31T06:03:31;95609.91;;;8.76;85.88
60479;BME280;46321;48.398;11.754;2023-03-31T06:05:57;95597.50;;;8.76;86.03
60479;BME280;46321;48.398;11.754;2023-03-31T06:08:22;95589.41;;;8.78;85.96
60479;BME280;46321;48.398;11.754;2023-03-31T06:10:48;95578.84;;;8.78;85.76
60479;BME280;46321;48.398;11.754;2023-03-31T06:13:13;95568.47;;;8.76;86.04
60479;BME280;46321;48.398;11.754;2023-03-31T06:15:39;95563.72;;;8.87;85.92
60479;BME280;46321;48.398;11.754;2023-03-31T06:18:04;95555.00;;;8.86;86.23
60479;BME280;46321;48.398;11.754;2023-03-31T06:20:34;95550.78;;;8.92;85.96
60479;BME280;46321;48.398;11.754;2023-03-31T06:23:00;95547.56;;;8.97;85.88
60479;BME280;46321;48.398;11.754;2023-03-31T06:25:25;95542.47;;;9.17;85.12
60479;BME280;46321;48.398;11.754;2023-03-31T06:27:50;95531.09;;;9.16;85.16
60479;BME280;46321;48.398;11.754;2023-03-31T06:30:16;95522.94;;;9.11;85.17
60479;BME280;46321;48.398;11.754;2023-03-31T06:32:41;95513.69;;;9.22;84.92
60479;BME280;46321;48.398;11.754;2023-03-31T06:35:06;95512.72;;;9.30;84.45
60479;BME280;46321;48.398;11.754;2023-03-31T06:37:32;95511.19;;;9.43;83.49
60479;BME280;46321;48.398;11.754;2023-03-31T06:39:57;95515.94;;;9.25;84.14
60479;BME280;46321;48.398;11.754;2023-03-31T06:42:22;95520.53;;;9.38;83.65
60479;BME280;46321;48.398;11.754;2023-03-31T06:44:48;95500.34;;;9.31;83.99
60479;BME280;46321;48.398;11.754;2023-03-31T06:47:13;95502.84;;;9.39;83.50
60479;BME280;46321;48.398;11.754;2023-03-31T06:49:38;95504.28;;;9.42;83.43
60479;BME280;46321;48.398;11.754;2023-03-31T06:52:03;95503.91;;;9.45;83.45
60479;BME280;46321;48.398;11.754;2023-03-31T06:54:29;95484.72;;;9.65;83.17
60479;BME280;46321;48.398;11.754;2023-03-31T06:56:54;95487.59;;;9.70;82.96
60479;BME280;46321;48.398;11.754;2023-03-31T06:59:20;95485.06;;;9.55;83.28
60479;BME280;46321;48.398;11.754;2023-03-31T07:01:45;95493.47;;;9.65;82.95
60479;BME280;46321;48.398;11.754;2023-03-31T07:04:12;95498.09;;;9.56;83.75
60479;BME280;46321;48.398;11.754;2023-03-31T07:06:37;95509.56;;;9.42;84.37
60479;BME280;46321;48.398;11.754;2023-03-31T07:09:03;95518.78;;;9.24;85.30
60479;BME280;46321;48.398;11.754;2023-03-31T07:11:28;95539.38;;;9.35;84.90
60479;BME280;46321;48.398;11.754;2023-03-31T07:13:53;95549.56;;;9.38;84.68
60479;BME280;46321;48.398;11.754;2023-03-31T07:16:19;95567.94;;;9.25;85.59
60479;BME280;46321;48.398;11.754;2023-03-31T07:18:44;95585.16;;;9.43;85.53
60479;BME280;46321;48.398;11.754;2023-03-31T07:21:10;95608.06;;;9.35;85.61
60479;BME280;46321;48.398;11.754;2023-03-31T07:23:36;95632.84;;;9.56;84.67
60479;BME280;46321;48.398;11.754;2023-03-31T07:26:01;95628.66;;;9.69;84.42
60479;BME280;46321;48.398;11.754;2023-03-31T07:28:28;95639.31;;;9.32;85.72
60479;BME280;46321;48.398;11.754;2023-03-31T07:30:53;95632.38;;;9.53;85.18
60479;BME280;46321;48.398;11.754;2023-03-31T07:33:18;95648.69;;;9.56;85.47
60479;BME280;46321;48.398;11.754;2023-03-31T07:35:44;95636.09;;;9.58;85.43
60479;BME280;46321;48.398;11.754;2023-03-31T07:38:10;95611.28;;;9.59;85.34
60479;BME280;46321;48.398;11.754;2023-03-31T07:40:36;95625.97;;;9.62;85.13
60479;BME280;46321;48.398;11.754;2023-03-31T07:43:02;95653.72;;;9.51;85.74
60479;BME280;46321;48.398;11.754;2023-03-31T07:45:27;95652.31;;;9.33;86.44
60479;BME280;46321;48.398;11.754;2023-03-31T07:47:53;95645.91;;;9.43;86.23
60479;BME280;46321;48.398;11.754;2023-03-31T07:50:20;95634.19;;;9.30;86.58
60479;BME280;46321;48.398;11.754;2023-03-31T07:52:45;95653.56;;;9.37;86.63
60479;BME280;46321;48.398;11.754;2023-03-31T07:55:11;95584.03;;;9.30;87.23
60479;BME280;46321;48.398;11.754;2023-03-31T07:57:37;95552.03;;;9.40;86.90
60479;BME280;46321;48.398;11.754;2023-03-31T08:00:06;95533.47;;;9.33;87.04
60479;BME280;46321;48.398;11.754;2023-03-31T08:02:33;95513.44;;;9.46;86.83
60479;BME280;46321;48.398;11.754;2023-03-31T08:05:00;95513.16;;;9.62;86.94
60479;BME280;46321;48.398;11.754;2023-03-31T08:07:25;95510.72;;;9.61;86.71
60479;BME280;46321;48.398;11.754;2023-03-31T08:09:55;95509.19;;;9.45;87.80
60479;BME280;46321;48.398;11.754;2023-03-31T08:12:20;95510.91;;;9.59;87.19
60479;BME280;46321;48.398;11.754;2023-03-31T08:14:45;95504.75;;;9.52;86.93
60479;BME280;46321;48.398;11.754;2023-03-31T08:17:11;95505.63;;;9.59;87.25
60479;BME280;46321;48.398;11.754;2023-03-31T08:19:37;95479.69;;;9.70;86.45
60479;BME280;46321;48.398;11.754;2023-03-31T08:22:03;95461.53;;;9.60;87.24
60479;BME280;46321;48.398;11.754;2023-03-31T08:24:29;95464.19;;;9.67;86.87
60479;BME280;46321;48.398;11.754;2023-03-31T08:26:54;95442.69;;;9.70;86.34
60479;BME280;46321;48.398;11.754;2023-03-31T08:29:23;95447.38;;;9.81;86.06
60479;BME280;46321;48.398;11.754;2023-03-31T08:31:48;95440.63;;;9.65;86.25
60479;BME280;46321;48.398;11.754;2023-03-31T08:34:13;95436.81;;;9.81;85.68
60479;BME280;46321;48.398;11.754;2023-03-31T08:36:39;95429.22;;;9.65;86.13
60479;BME280;46321;48.398;11.754;2023-03-31T08:39:05;95413.44;;;9.78;86.10
60479;BME280;46321;48.398;11.754;2023-03-31T08:41:47;95416.25;;;9.70;86.43
60479;BME280;46321;48.398;11.754;2023-03-31T08:44:20;95409.78;;;9.79;86.32
60479;BME280;46321;48.398;11.754;2023-03-31T08:46:48;95395.53;;;9.73;86.00
60479;BME280;46321;48.398;11.754;2023-03-31T08:49:17;95402.69;;;9.87;85.71
60479;BME280;46321;48.398;11.754;2023-03-31T08:51:49;95410.81;;;9.78;85.93
60479;BME280;46321;48.398;11.754;2023-03-31T08:54:46;95420.81;;;9.90;85.29
60479;BME280;46321;48.398;11.754;2023-03-31T08:57:21;95422.78;;;9.74;85.43
60479;BME280;46321;48.398;11.754;2023-03-31T08:59:49;95464.72;;;9.91;85.61
60479;BME280;46321;48.398;11.754;2023-03-31T09:02:29;95487.63;;;10.19;84.77
60479;BME280;46321;48.398;11.754;2023-03-31T09:05:15;95511.28;;;10.34;84.58
60479;BME280;46321;48.398;11.754;2023-03-31T09:08:10;95523.94;;;10.46;84.57
60479;BME280;46321;48.398;11.754;2023-03-31T09:10:55;95579.38;;;10.54;84.57
60479;BME280;46321;48.398;11.754;2023-03-31T09:18:46;95482.53;;;10.80;84.12
60479;BME280;46321;48.398;11.754;2023-03-31T09:21:17;95472.16;;;10.92;83.24
60479;BME280;46321;48.398;11.754;2023-03-31T09:29:22;95478.25;;;11.33;82.05
60479;BME280;46321;48.398;11.754;2023-03-31T09:31:49;95463.00;;;11.42;80.79
60479;BME280;46321;48.398;11.754;2023-03-31T09:34:27;95470.69;;;11.71;80.36
60479;BME280;46321;48.398;11.754;2023-03-31T09:36:53;95448.00;;;12.42;80.75
60479;BME280;46321;48.398;11.754;2023-03-31T09:39:19;95436.06;;;14.48;77.04
60479;BME280;46321;48.398;11.754;2023-03-31T09:41:46;95418.38;;;16.22;70.77
60479;BME280;46321;48.398;11.754;2023-03-31T09:46:47;95384.91;;;19.89;55.23
60479;BME280;46321;48.398;11.754;2023-03-31T09:49:16;95372.53;;;19.29;52.72
60479;BME280;46321;48.398;11.754;2023-03-31T09:51:45;95375.59;;;18.77;52.55
60479;BME280;46321;48.398;11.754;2023-03-31T09:54:34;95388.00;;;19.60;52.13
60479;BME280;46321;48.398;11.754;2023-03-31T09:57:00;95391.53;;;20.35;48.47
60479;BME280;46321;48.398;11.754;2023-03-31T09:59:32;95390.25;;;20.90;48.06
60479;BME280;46321;48.398;11.754;2023-03-31T10:02:02;95388.75;;;21.98;45.95
60479;BME280;46321;48.398;11.754;2023-03-31T10:04:31;95385.97;;;23.04;43.06
60479;BME280;46321;48.398;11.754;2023-03-31T10:06:58;95393.88;;;24.04;41.91
60479;BME280;46321;48.398;11.754;2023-03-31T10:09:34;95381.97;;;24.68;38.71
60479;BME280;46321;48.398;11.754;2023-03-31T10:12:04;95385.66;;;24.15;37.01
60479;BME280;46321;48.398;11.754;2023-03-31T10:14:39;95381.09;;;24.34;39.05
60479;BME280;46321;48.398;11.754;2023-03-31T10:17:05;95376.34;;;24.26;37.81
60479;BME280;46321;48.398;11.754;2023-03-31T10:19:34;95367.13;;;24.27;36.37
60479;BME280;46321;48.398;11.754;2023-03-31T10:22:05;95373.78;;;25.07;35.21
60479;BME280;46321;48.398;11.754;2023-03-31T10:24:42;95350.56;;;26.19;34.20
60479;BME280;46321;48.398;11.754;2023-03-31T10:27:23;95349.88;;;27.83;32.46
60479;BME280;46321;48.398;11.754;2023-03-31T10:30:00;95328.09;;;27.33;29.32
60479;BME280;46321;48.398;11.754;2023-03-31T10:32:31;95343.91;;;27.08;29.90
60479;BME280;46321;48.398;11.754;2023-03-31T10:34:58;95315.53;;;27.87;28.97
60479;BME280;46321;48.398;11.754;2023-03-31T10:37:28;95333.72;;;26.22;29.89
60479;BME280;46321;48.398;11.754;2023-03-31T10:40:01;95317.22;;;25.53;31.25
60479;BME280;46321;48.398;11.754;2023-03-31T10:42:30;95318.59;;;24.36;33.91
60479;BME280;46321;48.398;11.754;2023-03-31T10:45:24;95314.31;;;24.35;33.55
60479;BME280;46321;48.398;11.754;2023-03-31T10:47:53;95297.34;;;22.52;35.27
60479;BME280;46321;48.398;11.754;2023-03-31T10:50:29;95287.97;;;22.79;36.41
60479;BME280;46321;48.398;11.754;2023-03-31T10:53:10;95289.88;;;23.82;35.09
60479;BME280;46321;48.398;11.754;2023-03-31T10:55:55;95283.78;;;23.22;34.82
60479;BME280;46321;48.398;11.754;2023-03-31T11:06:16;95276.53;;;24.10;33.48
60479;BME280;46321;48.398;11.754;2023-03-31T11:09:08;95256.09;;;24.23;33.15
60479;BME280;46321;48.398;11.754;2023-03-31T11:17:23;95234.28;;;20.90;35.50
60479;BME280;46321;48.398;11.754;2023-03-31T11:20:27;95234.47;;;19.53;37.84
60479;BME280;46321;48.398;11.754;2023-03-31T11:25:37;95252.00;;;18.69;40.73
60479;BME280;46321;48.398;11.754;2023-03-31T11:31:14;95234.94;;;17.81;42.27
60479;BME280;46321;48.398;11.754;2023-03-31T11:39:23;95282.91;;;16.81;44.39
60479;BME280;46321;48.398;11.754;2023-03-31T11:41:56;95253.13;;;16.72;45.10
60479;BME280;46321;48.398;11.754;2023-03-31T11:44:23;95269.84;;;15.86;45.38
60479;BME280;46321;48.398;11.754;2023-03-31T11:46:54;95240.66;;;15.09;47.68
60479;BME280;46321;48.398;11.754;2023-03-31T11:49:32;95212.91;;;14.69;48.25
60479;BME280;46321;48.398;11.754;2023-03-31T11:52:12;95238.25;;;14.59;46.78
60479;BME280;46321;48.398;11.754;2023-03-31T11:55:02;95237.31;;;15.02;47.69
60479;BME280;46321;48.398;11.754;2023-03-31T11:58:05;95226.41;;;15.15;48.29
60479;BME280;46321;48.398;11.754;2023-03-31T12:00:38;95228.75;;;14.99;48.74
60479;BME280;46321;48.398;11.754;2023-03-31T12:03:12;95212.44;;;14.96;49.87
60479;BME280;46321;48.398;11.754;2023-03-31T12:05:49;95211.91;;;15.23;49.45
60479;BME280;46321;48.398;11.754;2023-03-31T12:08:25;95218.91;;;15.12;50.08
60479;BME280;46321;48.398;11.754;2023-03-31T12:10:57;95197.97;;;14.92;50.96
60479;BME280;46321;48.398;11.754;2023-03-31T12:13:48;95192.25;;;15.12;50.98
60479;BME280;46321;48.398;11.754;2023-03-31T12:16:22;95189.34;;;15.14;50.95
60479;BME280;46321;48.398;11.754;2023-03-31T12:18:58;95182.53;;;14.70;50.41
60479;BME280;46321;48.398;11.754;2023-03-31T12:21:27;95182.78;;;14.56;50.24
60479;BME280;46321;48.398;11.754;2023-03-31T12:23:53;95153.25;;;14.70;49.04
60479;BME280;46321;48.398;11.754;2023-03-31T12:29:31;95159.00;;;15.03;48.78
60479;BME280;46321;48.398;11.754;2023-03-31T12:32:01;95146.16;;;14.99;47.82
60479;BME280;46321;48.398;11.754;2023-03-31T12:34:29;95130.41;;;14.98;47.53
60479;BME280;46321;48.398;11.754;2023-03-31T12:40:03;95116.69;;;15.18;48.30
60479;BME280;46321;48.398;11.754;2023-03-31T12:43:05;95127.13;;;15.37;47.24
60479;BME280;46321;48.398;11.754;2023-03-31T12:45:32;95126.50;;;15.47;47.59
60479;BME280;46321;48.398;11.754;2023-03-31T12:51:06;95119.69;;;15.39;46.23
60479;BME280;46321;48.398;11.754;2023-03-31T12:56:20;95134.66;;;15.57;47.12
60479;BME280;46321;48.398;11.754;2023-03-31T12:58:46;95132.16;;;15.21;45.31
60479;BME280;46321;48.398;11.754;2023-03-31T13:01:20;95139.97;;;15.40;44.78
60479;BME280;46321;48.398;11.754;2023-03-31T13:04:06;95134.50;;;15.47;45.50
60479;BME280;46321;48.398;11.754;2023-03-31T13:09:08;95142.41;;;15.42;46.10
60479;BME280;46321;48.398;11.754;2023-03-31T13:11:51;95140.69;;;15.36;46.71
60479;BME280;46321;48.398;11.754;2023-03-31T13:14:50;95135.53;;;15.17;47.41
60479;BME280;46321;48.398;11.754;2023-03-31T13:19:49;95134.84;;;14.80;46.83
60479;BME280;46321;48.398;11.754;2023-03-31T13:22:31;95145.38;;;14.75;48.11
60479;BME280;46321;48.398;11.754;2023-03-31T13:27:55;95132.59;;;14.36;48.85
60479;BME280;46321;48.398;11.754;2023-03-31T13:33:07;95115.22;;;14.45;48.49
60479;BME280;46321;48.398;11.754;2023-03-31T13:35:38;95117.66;;;14.47;48.44
60479;BME280;46321;48.398;11.754;2023-03-31T13:38:08;95105.38;;;14.46;48.59
60479;BME280;46321;48.398;11.754;2023-03-31T13:46:50;95125.84;;;14.69;49.56
60479;BME280;46321;48.398;11.754;2023-03-31T13:52:12;95167.63;;;13.96;54.99
60479;BME280;46321;48.398;11.754;2023-03-31T13:55:00;95178.41;;;14.02;57.07
60479;BME280;46321;48.398;11.754;2023-03-31T14:03:12;95157.13;;;14.26;54.78
60479;BME280;46321;48.398;11.754;2023-03-31T14:05:52;95154.44;;;13.90;54.34
60479;BME280;46321;48.398;11.754;2023-03-31T14:08:32;95161.50;;;14.08;52.65
60479;BME280;46321;48.398;11.754;2023-03-31T14:11:27;95164.97;;;14.20;52.98
60479;BME280;46321;48.398;11.754;2023-03-31T14:14:14;95169.28;;;14.22;52.03
60479;BME280;46321;48.398;11.754;2023-03-31T14:16:48;95173.66;;;14.16;52.50
60479;BME280;46321;48.398;11.754;2023-03-31T14:19:52;95167.84;;;14.07;51.12
60479;BME280;46321;48.398;11.754;2023-03-31T14:33:41;95154.31;;;13.84;52.13
60479;BME280;46321;48.398;11.754;2023-03-31T14:39:03;95135.47;;;13.86;52.33
60479;BME280;46321;48.398;11.754;2023-03-31T14:41:30;95143.00;;;14.01;52.16
60479;BME280;46321;48.398;11.754;2023-03-31T14:44:00;95133.03;;;13.96;51.23
60479;BME280;46321;48.398;11.754;2023-03-31T14:46:29;95142.66;;;13.98;51.64
60479;BME280;46321;48.398;11.754;2023-03-31T14:48:56;95139.75;;;13.99;51.17
60479;BME280;46321;48.398;11.754;2023-03-31T14:51:29;95147.50;;;14.01;51.45
60479;BME280;46321;48.398;11.754;2023-03-31T14:53:59;95160.00;;;13.88;50.56
60479;BME280;46321;48.398;11.754;2023-03-31T14:56:33;95168.31;;;13.80;50.62
60479;BME280;46321;48.398;11.754;2023-03-31T14:59:02;95175.91;;;13.64;51.43
60479;BME280;46321;48.398;11.754;2023-03-31T15:01:29;95174.16;;;13.39;51.33
60479;BME280;46321;48.398;11.754;2023-03-31T15:04:02;95184.16;;;13.25;52.37
60479;BME280;46321;48.398;11.754;2023-03-31T15:06:30;95192.88;;;13.13;52.76
60479;BME280;46321;48.398;11.754;2023-03-31T15:09:01;95200.53;;;13.22;52.63
60479;BME280;46321;48.398;11.754;2023-03-31T15:11:29;95204.41;;;13.07;53.88
60479;BME280;46321;48.398;11.754;2023-03-31T15:13:55;95192.41;;;12.86;56.00
60479;BME280;46321;48.398;11.754;2023-03-31T15:16:42;95196.38;;;12.76;57.04
60479;BME280;46321;48.398;11.754;2023-03-31T15:19:14;95184.56;;;12.53;58.23
60479;BME280;46321;48.398;11.754;2023-03-31T15:21:40;95189.56;;;12.17;58.74
60479;BME280;46321;48.398;11.754;2023-03-31T15:24:06;95148.88;;;12.49;58.47
60479;BME280;46321;48.398;11.754;2023-03-31T15:26:38;95131.13;;;12.50;58.05
60479;BME280;46321;48.398;11.754;2023-03-31T15:29:13;95148.66;;;12.51;58.56